sensor_id;sensor_type;location;lat;lon;timestamp;pressure;altitude;pressure_sealevel;temperature
19040;BMP180;9652;49.014;12.052;2023-08-24T00:00:25;98103.00;;;23.70
19040;BMP180;9652;49.014;12.052;2023-08-24T00:02:52;98098.00;;;23.60
19040;BMP180;9652;49.014;12.052;2023-08-24T00:05:20;98151.00;;;23.60
19040;BMP180;9652;49.014;12.052;2023-08-24T00:07:48;98077.00;;;23.60
19040;BMP180;9652;49.014;12.052;2023-08-24T00:10:17;98106.00;;;23.50
19040;BMP180;9652;49.014;12.052;2023-08-24T00:12:44;98104.00;;;23.50
19040;BMP180;9652;49.014;12.052;2023-08-24T00:15:11;98092.00;;;23.40
19040;BMP180;9652;49.014;12.052;2023-08-24T00:17:39;98102.00;;;23.40
19040;BMP180;9652;49.014;12.052;2023-08-24T00:20:08;98095.00;;;23.20
19040;BMP180;9652;49.014;12.052;2023-08-24T00:22:37;98090.00;;;23.30
19040;BMP180;9652;49.014;12.052;2023-08-24T00:25:06;98091.00;;;23.30
19040;BMP180;9652;49.014;12.052;2023-08-24T00:27:36;98107.00;;;23.30
19040;BMP180;9652;49.014;12.052;2023-08-24T00:30:05;98068.00;;;23.20
19040;BMP180;9652;49.014;12.052;2023-08-24T00:32:33;98104.00;;;23.20
19040;BMP180;9652;49.014;12.052;2023-08-24T00:35:01;98097.00;;;23.20
19040;BMP180;9652;49.014;12.052;2023-08-24T00:37:28;98101.00;;;23.20
19040;BMP180;9652;49.014;12.052;2023-08-24T00:39:55;98103.00;;;23.10
19040;BMP180;9652;49.014;12.052;2023-08-24T00:42:23;98115.00;;;23.10
19040;BMP180;9652;49.014;12.052;2023-08-24T00:44:52;98076.00;;;23.10
19040;BMP180;9652;49.014;12.052;2023-08-24T00:47:19;98094.00;;;23.00
19040;BMP180;9652;49.014;12.052;2023-08-24T00:49:47;98069.00;;;23.00
19040;BMP180;9652;49.014;12.052;2023-08-24T00:52:14;98093.00;;;23.00
19040;BMP180;9652;49.014;12.052;2023-08-24T00:54:43;98092.00;;;22.90
19040;BMP180;9652;49.014;12.052;2023-08-24T00:57:11;98087.00;;;22.90
19040;BMP180;9652;49.014;12.052;2023-08-24T00:59:38;98086.00;;;22.90
19040;BMP180;9652;49.014;12.052;2023-08-24T01:02:08;98085.00;;;22.80
19040;BMP180;9652;49.014;12.052;2023-08-24T01:04:36;98065.00;;;22.80
19040;BMP180;9652;49.014;12.052;2023-08-24T01:07:04;98087.00;;;22.80
19040;BMP180;9652;49.014;12.052;2023-08-24T01:09:32;98088.00;;;22.70
19040;BMP180;9652;49.014;12.052;2023-08-24T01:12:12;98091.00;;;22.70
19040;BMP180;9652;49.014;12.052;2023-08-24T01:14:53;98089.00;;;22.70
19040;BMP180;9652;49.014;12.052;2023-08-24T01:17:27;98080.00;;;22.70
19040;BMP180;9652;49.014;12.052;2023-08-24T01:19:58;98082.00;;;22.30
19040;BMP180;9652;49.014;12.052;2023-08-24T01:22:36;98065.00;;;22.60
19040;BMP180;9652;49.014;12.052;2023-08-24T01:25:12;98087.00;;;22.60
19040;BMP180;9652;49.014;12.052;2023-08-24T01:27:42;98082.00;;;22.30
19040;BMP180;9652;49.014;12.052;2023-08-24T01:30:10;98072.00;;;22.50
19040;BMP180;9652;49.014;12.052;2023-08-24T01:32:38;98087.00;;;22.50
19040;BMP180;9652;49.014;12.052;2023-08-24T01:35:07;98090.00;;;22.50
19040;BMP180;9652;49.014;12.052;2023-08-24T01:37:37;98081.00;;;22.50
19040;BMP180;9652;49.014;12.052;2023-08-24T01:40:07;98078.00;;;22.40
19040;BMP180;9652;49.014;12.052;2023-08-24T01:42:50;98077.00;;;22.30
19040;BMP180;9652;49.014;12.052;2023-08-24T01:45:19;98072.00;;;22.30
19040;BMP180;9652;49.014;12.052;2023-08-24T01:47:50;98077.00;;;22.30
19040;BMP180;9652;49.014;12.052;2023-08-24T01:50:19;98060.00;;;22.30
19040;BMP180;9652;49.014;12.052;2023-08-24T01:52:47;98039.00;;;22.30
19040;BMP180;9652;49.014;12.052;2023-08-24T01:55:15;98051.00;;;22.30
19040;BMP180;9652;49.014;12.052;2023-08-24T01:57:45;98049.00;;;22.20
19040;BMP180;9652;49.014;12.052;2023-08-24T02:00:13;98059.00;;;22.20
19040;BMP180;9652;49.014;12.052;2023-08-24T02:02:43;98061.00;;;22.20
19040;BMP180;9652;49.014;12.052;2023-08-24T02:05:11;98044.00;;;22.10
19040;BMP180;9652;49.014;12.052;2023-08-24T02:07:39;98052.00;;;22.10
19040;BMP180;9652;49.014;12.052;2023-08-24T02:10:07;97985.00;;;22.10
19040;BMP180;9652;49.014;12.052;2023-08-24T02:12:34;98049.00;;;22.10
19040;BMP180;9652;49.014;12.052;2023-08-24T02:15:05;98046.00;;;22.00
19040;BMP180;9652;49.014;12.052;2023-08-24T02:17:32;98050.00;;;22.00
19040;BMP180;9652;49.014;12.052;2023-08-24T02:20:00;98045.00;;;22.00
19040;BMP180;9652;49.014;12.052;2023-08-24T02:22:28;98023.00;;;22.00
19040;BMP180;9652;49.014;12.052;2023-08-24T02:24:56;98052.00;;;21.90
19040;BMP180;9652;49.014;12.052;2023-08-24T02:27:23;98048.00;;;21.90
19040;BMP180;9652;49.014;12.052;2023-08-24T02:29:50;98042.00;;;21.90
19040;BMP180;9652;49.014;12.052;2023-08-24T02:32:19;98045.00;;;21.80
19040;BMP180;9652;49.014;12.052;2023-08-24T02:34:46;98035.00;;;21.80
19040;BMP180;9652;49.014;12.052;2023-08-24T02:37:13;98051.00;;;21.80
19040;BMP180;9652;49.014;12.052;2023-08-24T02:39:41;98026.00;;;21.80
19040;BMP180;9652;49.014;12.052;2023-08-24T02:42:09;98027.00;;;21.40
19040;BMP180;9652;49.014;12.052;2023-08-24T02:44:37;98043.00;;;21.70
19040;BMP180;9652;49.014;12.052;2023-08-24T02:47:05;98027.00;;;21.70
19040;BMP180;9652;49.014;12.052;2023-08-24T02:49:33;98021.00;;;21.70
19040;BMP180;9652;49.014;12.052;2023-08-24T02:52:03;98026.00;;;21.70
19040;BMP180;9652;49.014;12.052;2023-08-24T02:54:30;98033.00;;;21.60
19040;BMP180;9652;49.014;12.052;2023-08-24T02:56:57;98033.00;;;21.70
19040;BMP180;9652;49.014;12.052;2023-08-24T02:59:24;98031.00;;;21.60
19040;BMP180;9652;49.014;12.052;2023-08-24T03:01:51;98048.00;;;21.60
19040;BMP180;9652;49.014;12.052;2023-08-24T03:04:19;98028.00;;;21.60
19040;BMP180;9652;49.014;12.052;2023-08-24T03:06:48;98042.00;;;21.60
19040;BMP180;9652;49.014;12.052;2023-08-24T03:09:15;98051.00;;;21.60
19040;BMP180;9652;49.014;12.052;2023-08-24T03:11:42;97960.00;;;21.60
19040;BMP180;9652;49.014;12.052;2023-08-24T03:14:11;98048.00;;;21.50
19040;BMP180;9652;49.014;12.052;2023-08-24T03:16:38;98055.00;;;21.50
19040;BMP180;9652;49.014;12.052;2023-08-24T03:19:05;98044.00;;;21.50
19040;BMP180;9652;49.014;12.052;2023-08-24T03:21:34;98049.00;;;21.50
19040;BMP180;9652;49.014;12.052;2023-08-24T03:24:03;98052.00;;;21.50
19040;BMP180;9652;49.014;12.052;2023-08-24T03:26:31;98047.00;;;21.40
19040;BMP180;9652;49.014;12.052;2023-08-24T03:28:58;98049.00;;;21.40
19040;BMP180;9652;49.014;12.052;2023-08-24T03:31:25;98032.00;;;21.40
19040;BMP180;9652;49.014;12.052;2023-08-24T03:33:53;98038.00;;;21.40
19040;BMP180;9652;49.014;12.052;2023-08-24T03:36:20;98039.00;;;21.30
19040;BMP180;9652;49.014;12.052;2023-08-24T03:38:47;98026.00;;;21.30
19040;BMP180;9652;49.014;12.052;2023-08-24T03:41:16;98005.00;;;21.30
19040;BMP180;9652;49.014;12.052;2023-08-24T03:43:45;98039.00;;;21.30
19040;BMP180;9652;49.014;12.052;2023-08-24T03:46:12;98046.00;;;21.20
19040;BMP180;9652;49.014;12.052;2023-08-24T03:48:43;98038.00;;;21.30
19040;BMP180;9652;49.014;12.052;2023-08-24T03:51:11;98048.00;;;21.20
19040;BMP180;9652;49.014;12.052;2023-08-24T03:53:38;98048.00;;;21.20
19040;BMP180;9652;49.014;12.052;2023-08-24T03:56:06;98046.00;;;21.20
19040;BMP180;9652;49.014;12.052;2023-08-24T03:58:35;98049.00;;;21.10
19040;BMP180;9652;49.014;12.052;2023-08-24T04:01:02;98054.00;;;20.90
19040;BMP180;9652;49.014;12.052;2023-08-24T04:03:29;98049.00;;;21.10
19040;BMP180;9652;49.014;12.052;2023-08-24T04:05:56;98048.00;;;21.10
19040;BMP180;9652;49.014;12.052;2023-08-24T04:08:23;98055.00;;;21.10
19040;BMP180;9652;49.014;12.052;2023-08-24T04:10:50;98053.00;;;21.10
19040;BMP180;9652;49.014;12.052;2023-08-24T04:13:17;98056.00;;;21.10
19040;BMP180;9652;49.014;12.052;2023-08-24T04:15:46;98061.00;;;21.00
19040;BMP180;9652;49.014;12.052;2023-08-24T04:18:13;98062.00;;;21.00
19040;BMP180;9652;49.014;12.052;2023-08-24T04:20:40;98053.00;;;21.00
19040;BMP180;9652;49.014;12.052;2023-08-24T04:23:07;98050.00;;;21.00
19040;BMP180;9652;49.014;12.052;2023-08-24T04:25:39;98060.00;;;21.00
19040;BMP180;9652;49.014;12.052;2023-08-24T04:28:06;98058.00;;;21.00
19040;BMP180;9652;49.014;12.052;2023-08-24T04:30:33;98061.00;;;21.00
19040;BMP180;9652;49.014;12.052;2023-08-24T04:33:02;98063.00;;;21.00
19040;BMP180;9652;49.014;12.052;2023-08-24T04:35:33;98065.00;;;21.00
19040;BMP180;9652;49.014;12.052;2023-08-24T04:38:00;98061.00;;;21.00
19040;BMP180;9652;49.014;12.052;2023-08-24T04:40:27;98066.00;;;21.00
19040;BMP180;9652;49.014;12.052;2023-08-24T04:42:54;98065.00;;;21.00
19040;BMP180;9652;49.014;12.052;2023-08-24T04:45:21;98062.00;;;21.10
19040;BMP180;9652;49.014;12.052;2023-08-24T04:47:48;98064.00;;;21.10
19040;BMP180;9652;49.014;12.052;2023-08-24T04:50:17;98064.00;;;21.10
19040;BMP180;9652;49.014;12.052;2023-08-24T04:52:44;98055.00;;;20.90
19040;BMP180;9652;49.014;12.052;2023-08-24T04:55:11;98061.00;;;21.10
19040;BMP180;9652;49.014;12.052;2023-08-24T04:57:38;98054.00;;;21.10
19040;BMP180;9652;49.014;12.052;2023-08-24T05:00:07;98048.00;;;21.20
19040;BMP180;9652;49.014;12.052;2023-08-24T05:02:34;98042.00;;;21.20
19040;BMP180;9652;49.014;12.052;2023-08-24T05:05:01;98051.00;;;21.20
19040;BMP180;9652;49.014;12.052;2023-08-24T05:07:29;98052.00;;;21.20
19040;BMP180;9652;49.014;12.052;2023-08-24T05:09:57;98042.00;;;21.20
19040;BMP180;9652;49.014;12.052;2023-08-24T05:12:24;98040.00;;;21.30
19040;BMP180;9652;49.014;12.052;2023-08-24T05:14:51;98027.00;;;21.30
19040;BMP180;9652;49.014;12.052;2023-08-24T05:17:18;98047.00;;;21.30
19040;BMP180;9652;49.014;12.052;2023-08-24T05:19:46;98034.00;;;21.30
19040;BMP180;9652;49.014;12.052;2023-08-24T05:22:13;98041.00;;;21.40
19040;BMP180;9652;49.014;12.052;2023-08-24T05:24:41;98044.00;;;21.40
19040;BMP180;9652;49.014;12.052;2023-08-24T05:27:08;98052.00;;;21.40
19040;BMP180;9652;49.014;12.052;2023-08-24T05:29:35;98043.00;;;21.40
19040;BMP180;9652;49.014;12.052;2023-08-24T05:32:03;98054.00;;;21.50
19040;BMP180;9652;49.014;12.052;2023-08-24T05:34:30;97972.00;;;21.50
19040;BMP180;9652;49.014;12.052;2023-08-24T05:36:57;98048.00;;;21.50
19040;BMP180;9652;49.014;12.052;2023-08-24T05:39:24;98038.00;;;21.50
19040;BMP180;9652;49.014;12.052;2023-08-24T05:41:53;98041.00;;;21.60
19040;BMP180;9652;49.014;12.052;2023-08-24T05:44:20;98044.00;;;21.60
19040;BMP180;9652;49.014;12.052;2023-08-24T05:46:48;98040.00;;;21.60
19040;BMP180;9652;49.014;12.052;2023-08-24T05:49:15;98042.00;;;21.70
19040;BMP180;9652;49.014;12.052;2023-08-24T05:51:42;98032.00;;;21.70
19040;BMP180;9652;49.014;12.052;2023-08-24T05:54:09;98046.00;;;21.70
19040;BMP180;9652;49.014;12.052;2023-08-24T05:56:36;98068.00;;;21.80
19040;BMP180;9652;49.014;12.052;2023-08-24T05:59:05;98069.00;;;21.80
19040;BMP180;9652;49.014;12.052;2023-08-24T06:01:32;98068.00;;;21.90
19040;BMP180;9652;49.014;12.052;2023-08-24T06:03:59;98070.00;;;21.90
19040;BMP180;9652;49.014;12.052;2023-08-24T06:06:26;98053.00;;;22.00
19040;BMP180;9652;49.014;12.052;2023-08-24T06:08:53;98050.00;;;22.00
19040;BMP180;9652;49.014;12.052;2023-08-24T06:11:20;98041.00;;;22.10
19040;BMP180;9652;49.014;12.052;2023-08-24T06:13:47;98041.00;;;22.10
19040;BMP180;9652;49.014;12.052;2023-08-24T06:16:15;98064.00;;;22.20
19040;BMP180;9652;49.014;12.052;2023-08-24T06:18:42;98055.00;;;22.30
19040;BMP180;9652;49.014;12.052;2023-08-24T06:21:09;98053.00;;;22.30
19040;BMP180;9652;49.014;12.052;2023-08-24T06:23:38;98067.00;;;22.40
19040;BMP180;9652;49.014;12.052;2023-08-24T06:26:05;98060.00;;;22.50
19040;BMP180;9652;49.014;12.052;2023-08-24T06:28:32;98050.00;;;22.50
19040;BMP180;9652;49.014;12.052;2023-08-24T06:31:00;98059.00;;;22.60
19040;BMP180;9652;49.014;12.052;2023-08-24T06:33:33;98058.00;;;22.70
19040;BMP180;9652;49.014;12.052;2023-08-24T06:36:01;98071.00;;;22.80
19040;BMP180;9652;49.014;12.052;2023-08-24T06:38:31;98061.00;;;22.80
19040;BMP180;9652;49.014;12.052;2023-08-24T06:40:58;98060.00;;;22.90
19040;BMP180;9652;49.014;12.052;2023-08-24T06:43:25;98055.00;;;23.00
19040;BMP180;9652;49.014;12.052;2023-08-24T06:45:55;98057.00;;;23.10
19040;BMP180;9652;49.014;12.052;2023-08-24T06:48:22;98068.00;;;23.20
19040;BMP180;9652;49.014;12.052;2023-08-24T06:50:51;98068.00;;;23.30
19040;BMP180;9652;49.014;12.052;2023-08-24T06:53:18;98059.00;;;23.40
19040;BMP180;9652;49.014;12.052;2023-08-24T06:55:46;98075.00;;;23.50
19040;BMP180;9652;49.014;12.052;2023-08-24T06:58:13;98066.00;;;23.50
19040;BMP180;9652;49.014;12.052;2023-08-24T07:00:40;98068.00;;;23.60
19040;BMP180;9652;49.014;12.052;2023-08-24T07:03:07;98067.00;;;23.70
19040;BMP180;9652;49.014;12.052;2023-08-24T07:05:34;98069.00;;;23.80
19040;BMP180;9652;49.014;12.052;2023-08-24T07:08:04;98056.00;;;23.90
19040;BMP180;9652;49.014;12.052;2023-08-24T07:10:31;98060.00;;;24.10
19040;BMP180;9652;49.014;12.052;2023-08-24T07:12:59;98050.00;;;24.20
19040;BMP180;9652;49.014;12.052;2023-08-24T07:15:26;98044.00;;;24.30
19040;BMP180;9652;49.014;12.052;2023-08-24T07:17:54;98041.00;;;24.40
19040;BMP180;9652;49.014;12.052;2023-08-24T07:20:21;98046.00;;;24.50
19040;BMP180;9652;49.014;12.052;2023-08-24T07:22:48;98040.00;;;24.70
19040;BMP180;9652;49.014;12.052;2023-08-24T07:25:18;98041.00;;;24.80
19040;BMP180;9652;49.014;12.052;2023-08-24T07:27:47;98034.00;;;24.90
19040;BMP180;9652;49.014;12.052;2023-08-24T07:30:14;98028.00;;;25.00
19040;BMP180;9652;49.014;12.052;2023-08-24T07:32:41;98011.00;;;25.20
19040;BMP180;9652;49.014;12.052;2023-08-24T07:35:09;98007.00;;;25.30
19040;BMP180;9652;49.014;12.052;2023-08-24T07:37:36;97997.00;;;25.50
19040;BMP180;9652;49.014;12.052;2023-08-24T07:40:04;98021.00;;;25.60
19040;BMP180;9652;49.014;12.052;2023-08-24T07:42:43;97979.00;;;25.70
19040;BMP180;9652;49.014;12.052;2023-08-24T07:45:11;97970.00;;;25.90
19040;BMP180;9652;49.014;12.052;2023-08-24T07:47:39;97904.00;;;26.00
19040;BMP180;9652;49.014;12.052;2023-08-24T07:50:08;97959.00;;;26.10
19040;BMP180;9652;49.014;12.052;2023-08-24T07:52:37;97971.00;;;26.30
19040;BMP180;9652;49.014;12.052;2023-08-24T07:55:05;97971.00;;;26.40
19040;BMP180;9652;49.014;12.052;2023-08-24T07:57:35;97965.00;;;26.50
19040;BMP180;9652;49.014;12.052;2023-08-24T08:00:04;97962.00;;;26.70
19040;BMP180;9652;49.014;12.052;2023-08-24T08:02:41;97969.00;;;26.80
19040;BMP180;9652;49.014;12.052;2023-08-24T08:05:08;97978.00;;;27.00
19040;BMP180;9652;49.014;12.052;2023-08-24T08:07:36;97981.00;;;27.10
19040;BMP180;9652;49.014;12.052;2023-08-24T08:10:05;97989.00;;;27.20
19040;BMP180;9652;49.014;12.052;2023-08-24T08:12:32;97989.00;;;27.30
19040;BMP180;9652;49.014;12.052;2023-08-24T08:15:02;97996.00;;;27.40
19040;BMP180;9652;49.014;12.052;2023-08-24T08:17:29;97994.00;;;27.40
19040;BMP180;9652;49.014;12.052;2023-08-24T08:19:59;97994.00;;;27.50
19040;BMP180;9652;49.014;12.052;2023-08-24T08:22:26;97999.00;;;27.40
19040;BMP180;9652;49.014;12.052;2023-08-24T08:24:53;98005.00;;;27.40
19040;BMP180;9652;49.014;12.052;2023-08-24T08:27:22;98011.00;;;27.40
19040;BMP180;9652;49.014;12.052;2023-08-24T08:29:50;97997.00;;;27.40
19040;BMP180;9652;49.014;12.052;2023-08-24T08:32:19;98002.00;;;27.40
19040;BMP180;9652;49.014;12.052;2023-08-24T08:34:46;98013.00;;;27.50
19040;BMP180;9652;49.014;12.052;2023-08-24T08:37:13;98014.00;;;27.50
19040;BMP180;9652;49.014;12.052;2023-08-24T08:39:40;98022.00;;;27.60
19040;BMP180;9652;49.014;12.052;2023-08-24T08:42:14;98030.00;;;27.60
19040;BMP180;9652;49.014;12.052;2023-08-24T08:44:43;98025.00;;;27.60
19040;BMP180;9652;49.014;12.052;2023-08-24T08:47:11;98016.00;;;27.60
19040;BMP180;9652;49.014;12.052;2023-08-24T08:49:42;98031.00;;;27.60
19040;BMP180;9652;49.014;12.052;2023-08-24T08:52:10;98024.00;;;27.70
19040;BMP180;9652;49.014;12.052;2023-08-24T08:54:37;98026.00;;;27.70
19040;BMP180;9652;49.014;12.052;2023-08-24T08:57:04;98022.00;;;27.80
19040;BMP180;9652;49.014;12.052;2023-08-24T08:59:33;98013.00;;;27.80
19040;BMP180;9652;49.014;12.052;2023-08-24T09:02:03;98009.00;;;27.90
19040;BMP180;9652;49.014;12.052;2023-08-24T09:04:33;98018.00;;;27.90
19040;BMP180;9652;49.014;12.052;2023-08-24T09:07:02;98023.00;;;28.00
19040;BMP180;9652;49.014;12.052;2023-08-24T09:09:35;98002.00;;;28.10
19040;BMP180;9652;49.014;12.052;2023-08-24T09:12:05;98011.00;;;28.20
19040;BMP180;9652;49.014;12.052;2023-08-24T09:14:33;98018.00;;;28.20
19040;BMP180;9652;49.014;12.052;2023-08-24T09:17:00;98011.00;;;28.00
19040;BMP180;9652;49.014;12.052;2023-08-24T09:19:30;98002.00;;;28.40
19040;BMP180;9652;49.014;12.052;2023-08-24T09:21:58;97989.00;;;28.50
19040;BMP180;9652;49.014;12.052;2023-08-24T09:24:34;98008.00;;;28.50
19040;BMP180;9652;49.014;12.052;2023-08-24T09:27:15;97998.00;;;28.60
19040;BMP180;9652;49.014;12.052;2023-08-24T09:29:42;98010.00;;;28.70
19040;BMP180;9652;49.014;12.052;2023-08-24T09:32:09;98011.00;;;28.80
19040;BMP180;9652;49.014;12.052;2023-08-24T09:34:37;97986.00;;;28.90
19040;BMP180;9652;49.014;12.052;2023-08-24T09:37:05;97976.00;;;28.90
19040;BMP180;9652;49.014;12.052;2023-08-24T09:39:40;97984.00;;;29.00
19040;BMP180;9652;49.014;12.052;2023-08-24T09:42:07;97980.00;;;29.10
19040;BMP180;9652;49.014;12.052;2023-08-24T09:44:34;97969.00;;;29.20
19040;BMP180;9652;49.014;12.052;2023-08-24T09:47:02;97958.00;;;29.30
19040;BMP180;9652;49.014;12.052;2023-08-24T09:49:35;97948.00;;;29.40
19040;BMP180;9652;49.014;12.052;2023-08-24T09:52:06;97929.00;;;29.40
19040;BMP180;9652;49.014;12.052;2023-08-24T09:54:38;97923.00;;;29.50
19040;BMP180;9652;49.014;12.052;2023-08-24T09:57:09;97935.00;;;29.60
19040;BMP180;9652;49.014;12.052;2023-08-24T09:59:40;97934.00;;;29.70
19040;BMP180;9652;49.014;12.052;2023-08-24T10:02:19;97940.00;;;29.70
19040;BMP180;9652;49.014;12.052;2023-08-24T10:04:49;97923.00;;;29.80
19040;BMP180;9652;49.014;12.052;2023-08-24T10:07:20;97924.00;;;29.90
19040;BMP180;9652;49.014;12.052;2023-08-24T10:09:57;97925.00;;;29.90
19040;BMP180;9652;49.014;12.052;2023-08-24T10:12:28;97922.00;;;30.00
19040;BMP180;9652;49.014;12.052;2023-08-24T10:15:00;97925.00;;;30.10
19040;BMP180;9652;49.014;12.052;2023-08-24T10:17:31;97900.00;;;30.20
19040;BMP180;9652;49.014;12.052;2023-08-24T10:20:00;97896.00;;;30.20
19040;BMP180;9652;49.014;12.052;2023-08-24T10:22:31;97913.00;;;30.30
19040;BMP180;9652;49.014;12.052;2023-08-24T10:25:01;97901.00;;;30.40
19040;BMP180;9652;49.014;12.052;2023-08-24T10:27:30;97901.00;;;30.40
19040;BMP180;9652;49.014;12.052;2023-08-24T10:29:57;97853.00;;;30.50
19040;BMP180;9652;49.014;12.052;2023-08-24T10:32:26;97885.00;;;30.60
19040;BMP180;9652;49.014;12.052;2023-08-24T10:34:54;97891.00;;;30.70
19040;BMP180;9652;49.014;12.052;2023-08-24T10:37:27;97892.00;;;30.70
19040;BMP180;9652;49.014;12.052;2023-08-24T10:39:54;97890.00;;;30.80
19040;BMP180;9652;49.014;12.052;2023-08-24T10:42:22;97885.00;;;30.90
19040;BMP180;9652;49.014;12.052;2023-08-24T10:44:50;97884.00;;;31.00
19040;BMP180;9652;49.014;12.052;2023-08-24T10:47:20;97779.00;;;31.00
19040;BMP180;9652;49.014;12.052;2023-08-24T10:49:59;97878.00;;;31.10
19040;BMP180;9652;49.014;12.052;2023-08-24T10:52:31;97885.00;;;31.20
19040;BMP180;9652;49.014;12.052;2023-08-24T10:55:01;97884.00;;;31.30
19040;BMP180;9652;49.014;12.052;2023-08-24T10:57:36;97883.00;;;31.40
19040;BMP180;9652;49.014;12.052;2023-08-24T11:00:07;97889.00;;;31.50
19040;BMP180;9652;49.014;12.052;2023-08-24T11:02:43;97880.00;;;31.60
19040;BMP180;9652;49.014;12.052;2023-08-24T11:05:19;97874.00;;;31.50
19040;BMP180;9652;49.014;12.052;2023-08-24T11:07:53;97871.00;;;31.80
19040;BMP180;9652;49.014;12.052;2023-08-24T11:10:21;97866.00;;;31.80
19040;BMP180;9652;49.014;12.052;2023-08-24T11:13:08;97863.00;;;32.00
19040;BMP180;9652;49.014;12.052;2023-08-24T11:15:40;97877.00;;;32.00
19040;BMP180;9652;49.014;12.052;2023-08-24T11:18:22;97841.00;;;32.10
19040;BMP180;9652;49.014;12.052;2023-08-24T11:20:54;97814.00;;;32.10
19040;BMP180;9652;49.014;12.052;2023-08-24T11:23:23;97839.00;;;32.10
19040;BMP180;9652;49.014;12.052;2023-08-24T11:25:52;97829.00;;;32.20
19040;BMP180;9652;49.014;12.052;2023-08-24T11:28:23;97813.00;;;32.20
19040;BMP180;9652;49.014;12.052;2023-08-24T11:30:53;97821.00;;;32.20
19040;BMP180;9652;49.014;12.052;2023-08-24T11:33:31;97822.00;;;32.20
19040;BMP180;9652;49.014;12.052;2023-08-24T11:36:00;97792.00;;;32.30
19040;BMP180;9652;49.014;12.052;2023-08-24T11:38:38;97816.00;;;32.30
19040;BMP180;9652;49.014;12.052;2023-08-24T11:41:13;97811.00;;;32.20
19040;BMP180;9652;49.014;12.052;2023-08-24T11:43:41;97808.00;;;32.40
19040;BMP180;9652;49.014;12.052;2023-08-24T11:46:10;97795.00;;;32.40
19040;BMP180;9652;49.014;12.052;2023-08-24T11:48:38;97796.00;;;32.40
19040;BMP180;9652;49.014;12.052;2023-08-24T11:51:08;97795.00;;;32.50
19040;BMP180;9652;49.014;12.052;2023-08-24T11:53:39;97804.00;;;32.50
19040;BMP180;9652;49.014;12.052;2023-08-24T11:56:08;97798.00;;;32.50
19040;BMP180;9652;49.014;12.052;2023-08-24T11:58:38;97782.00;;;32.60
19040;BMP180;9652;49.014;12.052;2023-08-24T12:01:05;97802.00;;;32.60
19040;BMP180;9652;49.014;12.052;2023-08-24T12:03:35;97790.00;;;32.70
19040;BMP180;9652;49.014;12.052;2023-08-24T12:06:09;97786.00;;;32.70
19040;BMP180;9652;49.014;12.052;2023-08-24T12:08:39;97800.00;;;32.70
19040;BMP180;9652;49.014;12.052;2023-08-24T12:11:12;97795.00;;;32.80
19040;BMP180;9652;49.014;12.052;2023-08-24T12:13:44;97796.00;;;32.90
19040;BMP180;9652;49.014;12.052;2023-08-24T12:16:13;97799.00;;;32.90
19040;BMP180;9652;49.014;12.052;2023-08-24T12:18:51;97791.00;;;33.00
19040;BMP180;9652;49.014;12.052;2023-08-24T12:21:19;97791.00;;;33.00
19040;BMP180;9652;49.014;12.052;2023-08-24T12:23:56;97787.00;;;33.10
19040;BMP180;9652;49.014;12.052;2023-08-24T12:26:23;97779.00;;;33.20
19040;BMP180;9652;49.014;12.052;2023-08-24T12:28:51;97795.00;;;33.30
19040;BMP180;9652;49.014;12.052;2023-08-24T12:31:19;97787.00;;;33.40
19040;BMP180;9652;49.014;12.052;2023-08-24T12:34:01;97790.00;;;33.40
19040;BMP180;9652;49.014;12.052;2023-08-24T12:36:29;97787.00;;;33.50
19040;BMP180;9652;49.014;12.052;2023-08-24T12:38:58;97785.00;;;33.60
19040;BMP180;9652;49.014;12.052;2023-08-24T12:41:25;97775.00;;;33.70
19040;BMP180;9652;49.014;12.052;2023-08-24T12:43:52;97784.00;;;33.80
19040;BMP180;9652;49.014;12.052;2023-08-24T12:46:19;97754.00;;;33.90
19040;BMP180;9652;49.014;12.052;2023-08-24T12:48:46;97746.00;;;34.00
19040;BMP180;9652;49.014;12.052;2023-08-24T12:51:14;97754.00;;;34.10
19040;BMP180;9652;49.014;12.052;2023-08-24T12:53:42;97735.00;;;34.10
19040;BMP180;9652;49.014;12.052;2023-08-24T12:56:09;97755.00;;;34.20
19040;BMP180;9652;49.014;12.052;2023-08-24T12:58:36;97750.00;;;34.40
19040;BMP180;9652;49.014;12.052;2023-08-24T13:01:03;97743.00;;;34.30
19040;BMP180;9652;49.014;12.052;2023-08-24T13:03:30;97729.00;;;34.50
19040;BMP180;9652;49.014;12.052;2023-08-24T13:05:57;97731.00;;;34.60
19040;BMP180;9652;49.014;12.052;2023-08-24T13:08:26;97733.00;;;34.60
19040;BMP180;9652;49.014;12.052;2023-08-24T13:10:53;97713.00;;;34.60
19040;BMP180;9652;49.014;12.052;2023-08-24T13:13:20;97727.00;;;34.70
19040;BMP180;9652;49.014;12.052;2023-08-24T13:15:50;97721.00;;;34.70
19040;BMP180;9652;49.014;12.052;2023-08-24T13:18:21;97717.00;;;34.80
19040;BMP180;9652;49.014;12.052;2023-08-24T13:20:48;97700.00;;;34.80
19040;BMP180;9652;49.014;12.052;2023-08-24T13:23:15;97682.00;;;34.80
19040;BMP180;9652;49.014;12.052;2023-08-24T13:25:44;97699.00;;;34.90
19040;BMP180;9652;49.014;12.052;2023-08-24T13:28:11;97705.00;;;34.90
19040;BMP180;9652;49.014;12.052;2023-08-24T13:30:38;97700.00;;;34.90
19040;BMP180;9652;49.014;12.052;2023-08-24T13:33:06;97693.00;;;35.00
19040;BMP180;9652;49.014;12.052;2023-08-24T13:35:34;97694.00;;;35.00
19040;BMP180;9652;49.014;12.052;2023-08-24T13:38:01;97694.00;;;35.10
19040;BMP180;9652;49.014;12.052;2023-08-24T13:40:28;97679.00;;;35.30
19040;BMP180;9652;49.014;12.052;2023-08-24T13:42:57;97665.00;;;35.50
19040;BMP180;9652;49.014;12.052;2023-08-24T13:45:24;97674.00;;;35.80
19040;BMP180;9652;49.014;12.052;2023-08-24T13:47:51;97668.00;;;36.20
19040;BMP180;9652;49.014;12.052;2023-08-24T13:50:18;97658.00;;;36.50
19040;BMP180;9652;49.014;12.052;2023-08-24T13:52:45;97650.00;;;36.90
19040;BMP180;9652;49.014;12.052;2023-08-24T13:55:12;97642.00;;;37.20
19040;BMP180;9652;49.014;12.052;2023-08-24T13:57:39;97654.00;;;37.40
19040;BMP180;9652;49.014;12.052;2023-08-24T14:00:09;97645.00;;;37.60
19040;BMP180;9652;49.014;12.052;2023-08-24T14:02:40;97641.00;;;37.80
19040;BMP180;9652;49.014;12.052;2023-08-24T14:05:08;97624.00;;;37.90
19040;BMP180;9652;49.014;12.052;2023-08-24T14:07:36;97645.00;;;38.00
19040;BMP180;9652;49.014;12.052;2023-08-24T14:10:05;97646.00;;;38.00
19040;BMP180;9652;49.014;12.052;2023-08-24T14:12:34;97629.00;;;38.10
19040;BMP180;9652;49.014;12.052;2023-08-24T14:15:01;97628.00;;;38.10
19040;BMP180;9652;49.014;12.052;2023-08-24T14:17:30;97624.00;;;38.20